sensor_id;sensor_type;location;lat;lon;timestamp;P1;durP1;ratioP1;P2;durP2;ratioP2
74064;SDS011;62421;51.412;5.432;2024-02-21T00:01:24;20.13;;;6.63;;
74064;SDS011;62421;51.412;5.432;2024-02-21T00:03:49;18.47;;;6.93;;
74064;SDS011;62421;51.412;5.432;2024-02-21T00:06:14;20.60;;;6.33;;
74064;SDS011;62421;51.412;5.432;2024-02-21T00:08:40;23.23;;;7.10;;
74064;SDS011;62421;51.412;5.432;2024-02-21T00:11:05;24.50;;;7.60;;
74064;SDS011;62421;51.412;5.432;2024-02-21T00:13:30;22.20;;;6.43;;
74064;SDS011;62421;51.412;5.432;2024-02-21T00:15:56;23.53;;;6.43;;
74064;SDS011;62421;51.412;5.432;2024-02-21T00:18:21;21.30;;;6.47;;
74064;SDS011;62421;51.412;5.432;2024-02-21T00:20:47;18.20;;;6.50;;
74064;SDS011;62421;51.412;5.432;2024-02-21T00:23:12;19.67;;;7.30;;
74064;SDS011;62421;51.412;5.432;2024-02-21T00:25:37;26.80;;;6.43;;
74064;SDS011;62421;51.412;5.432;2024-02-21T00:28:03;20.47;;;6.33;;
74064;SDS011;62421;51.412;5.432;2024-02-21T00:30:28;22.33;;;5.88;;
74064;SDS011;62421;51.412;5.432;2024-02-21T00:32:54;25.67;;;6.20;;
74064;SDS011;62421;51.412;5.432;2024-02-21T00:35:19;19.77;;;6.27;;
74064;SDS011;62421;51.412;5.432;2024-02-21T00:37:44;20.17;;;5.77;;
74064;SDS011;62421;51.412;5.432;2024-02-21T00:40:10;22.20;;;7.07;;
74064;SDS011;62421;51.412;5.432;2024-02-21T00:42:35;20.73;;;6.20;;
74064;SDS011;62421;51.412;5.432;2024-02-21T00:45:01;19.45;;;6.32;;
74064;SDS011;62421;51.412;5.432;2024-02-21T00:47:26;24.33;;;6.47;;
74064;SDS011;62421;51.412;5.432;2024-02-21T00:49:52;21.17;;;5.70;;
74064;SDS011;62421;51.412;5.432;2024-02-21T00:52:17;17.90;;;6.60;;
74064;SDS011;62421;51.412;5.432;2024-02-21T00:54:43;18.75;;;6.25;;
74064;SDS011;62421;51.412;5.432;2024-02-21T00:57:08;23.58;;;6.35;;
74064;SDS011;62421;51.412;5.432;2024-02-21T00:59:33;20.03;;;6.30;;
74064;SDS011;62421;51.412;5.432;2024-02-21T01:01:59;14.80;;;5.50;;
74064;SDS011;62421;51.412;5.432;2024-02-21T01:04:24;18.33;;;5.70;;
74064;SDS011;62421;51.412;5.432;2024-02-21T01:06:50;20.43;;;5.60;;
74064;SDS011;62421;51.412;5.432;2024-02-21T01:09:15;23.40;;;8.97;;
74064;SDS011;62421;51.412;5.432;2024-02-21T01:11:40;21.63;;;5.97;;
74064;SDS011;62421;51.412;5.432;2024-02-21T01:14:06;21.52;;;6.20;;
74064;SDS011;62421;51.412;5.432;2024-02-21T01:16:31;20.30;;;5.73;;
74064;SDS011;62421;51.412;5.432;2024-02-21T01:18:56;13.40;;;4.77;;
74064;SDS011;62421;51.412;5.432;2024-02-21T01:21:22;18.07;;;5.93;;
74064;SDS011;62421;51.412;5.432;2024-02-21T01:23:47;15.98;;;6.07;;
74064;SDS011;62421;51.412;5.432;2024-02-21T01:26:13;17.03;;;5.20;;
74064;SDS011;62421;51.412;5.432;2024-02-21T01:28:40;17.37;;;5.83;;
74064;SDS011;62421;51.412;5.432;2024-02-21T01:31:06;16.40;;;5.35;;
74064;SDS011;62421;51.412;5.432;2024-02-21T01:33:32;18.35;;;5.88;;
74064;SDS011;62421;51.412;5.432;2024-02-21T01:36:02;17.77;;;6.88;;
74064;SDS011;62421;51.412;5.432;2024-02-21T01:38:28;23.13;;;6.30;;
74064;SDS011;62421;51.412;5.432;2024-02-21T01:40:54;15.25;;;6.20;;
74064;SDS011;62421;51.412;5.432;2024-02-21T01:43:20;15.52;;;5.22;;
74064;SDS011;62421;51.412;5.432;2024-02-21T01:45:47;20.27;;;6.33;;
74064;SDS011;62421;51.412;5.432;2024-02-21T01:48:14;21.15;;;7.00;;
74064;SDS011;62421;51.412;5.432;2024-02-21T01:50:41;14.27;;;5.35;;
74064;SDS011;62421;51.412;5.432;2024-02-21T01:53:06;18.90;;;6.60;;
74064;SDS011;62421;51.412;5.432;2024-02-21T01:55:33;16.38;;;6.22;;
74064;SDS011;62421;51.412;5.432;2024-02-21T01:57:59;19.45;;;6.18;;
74064;SDS011;62421;51.412;5.432;2024-02-21T02:00:24;18.43;;;5.20;;
74064;SDS011;62421;51.412;5.432;2024-02-21T02:02:53;18.50;;;5.57;;
74064;SDS011;62421;51.412;5.432;2024-02-21T02:05:20;16.00;;;5.53;;
74064;SDS011;62421;51.412;5.432;2024-02-21T02:07:46;17.97;;;5.30;;
74064;SDS011;62421;51.412;5.432;2024-02-21T02:10:11;18.57;;;5.20;;
74064;SDS011;62421;51.412;5.432;2024-02-21T02:12:37;14.93;;;4.97;;
74064;SDS011;62421;51.412;5.432;2024-02-21T02:15:02;15.25;;;5.45;;
74064;SDS011;62421;51.412;5.432;2024-02-21T02:17:31;15.50;;;5.83;;
74064;SDS011;62421;51.412;5.432;2024-02-21T02:19:56;15.27;;;5.32;;
74064;SDS011;62421;51.412;5.432;2024-02-21T02:22:22;18.20;;;5.47;;
74064;SDS011;62421;51.412;5.432;2024-02-21T02:24:53;13.45;;;5.60;;
74064;SDS011;62421;51.412;5.432;2024-02-21T02:27:19;11.27;;;5.00;;
74064;SDS011;62421;51.412;5.432;2024-02-21T02:29:44;13.80;;;4.93;;
74064;SDS011;62421;51.412;5.432;2024-02-21T02:32:10;14.40;;;5.85;;
74064;SDS011;62421;51.412;5.432;2024-02-21T02:34:36;16.90;;;5.43;;
74064;SDS011;62421;51.412;5.432;2024-02-21T02:37:01;17.53;;;5.63;;
74064;SDS011;62421;51.412;5.432;2024-02-21T02:39:26;13.87;;;5.23;;
74064;SDS011;62421;51.412;5.432;2024-02-21T02:41:52;15.65;;;4.65;;
74064;SDS011;62421;51.412;5.432;2024-02-21T02:44:17;11.73;;;5.47;;
74064;SDS011;62421;51.412;5.432;2024-02-21T02:46:43;14.97;;;5.53;;
74064;SDS011;62421;51.412;5.432;2024-02-21T02:49:08;16.80;;;5.40;;
74064;SDS011;62421;51.412;5.432;2024-02-21T02:51:34;19.08;;;5.15;;
74064;SDS011;62421;51.412;5.432;2024-02-21T02:53:59;15.37;;;5.17;;
74064;SDS011;62421;51.412;5.432;2024-02-21T02:56:24;17.67;;;5.30;;
74064;SDS011;62421;51.412;5.432;2024-02-21T02:58:50;14.37;;;4.70;;
74064;SDS011;62421;51.412;5.432;2024-02-21T03:01:15;10.87;;;4.90;;
74064;SDS011;62421;51.412;5.432;2024-02-21T03:03:40;16.10;;;4.70;;
74064;SDS011;62421;51.412;5.432;2024-02-21T03:06:06;11.07;;;4.67;;
74064;SDS011;62421;51.412;5.432;2024-02-21T03:08:31;12.23;;;5.27;;
74064;SDS011;62421;51.412;5.432;2024-02-21T03:10:58;12.60;;;4.53;;
74064;SDS011;62421;51.412;5.432;2024-02-21T03:13:24;21.98;;;5.53;;
74064;SDS011;62421;51.412;5.432;2024-02-21T03:15:50;12.03;;;4.63;;
74064;SDS011;62421;51.412;5.432;2024-02-21T03:18:15;10.87;;;4.50;;
74064;SDS011;62421;51.412;5.432;2024-02-21T03:20:40;13.10;;;4.87;;
74064;SDS011;62421;51.412;5.432;2024-02-21T03:23:06;15.20;;;5.13;;
74064;SDS011;62421;51.412;5.432;2024-02-21T03:25:31;16.13;;;4.40;;
74064;SDS011;62421;51.412;5.432;2024-02-21T03:27:56;9.75;;;4.22;;
74064;SDS011;62421;51.412;5.432;2024-02-21T03:30:22;17.07;;;4.93;;
74064;SDS011;62421;51.412;5.432;2024-02-21T03:32:47;8.20;;;4.10;;
74064;SDS011;62421;51.412;5.432;2024-02-21T03:35:12;16.00;;;5.37;;
74064;SDS011;62421;51.412;5.432;2024-02-21T03:37:38;11.13;;;5.30;;
74064;SDS011;62421;51.412;5.432;2024-02-21T03:40:06;15.60;;;4.33;;
74064;SDS011;62421;51.412;5.432;2024-02-21T03:42:32;19.90;;;4.45;;
74064;SDS011;62421;51.412;5.432;2024-02-21T03:44:58;12.10;;;4.67;;
74064;SDS011;62421;51.412;5.432;2024-02-21T03:47:23;14.63;;;4.83;;
74064;SDS011;62421;51.412;5.432;2024-02-21T03:49:49;13.60;;;5.20;;
74064;SDS011;62421;51.412;5.432;2024-02-21T03:52:14;16.63;;;6.35;;
74064;SDS011;62421;51.412;5.432;2024-02-21T03:54:40;19.90;;;6.17;;
74064;SDS011;62421;51.412;5.432;2024-02-21T03:57:05;20.23;;;6.33;;
74064;SDS011;62421;51.412;5.432;2024-02-21T03:59:31;14.30;;;6.47;;
74064;SDS011;62421;51.412;5.432;2024-02-21T04:01:56;18.17;;;6.60;;
74064;SDS011;62421;51.412;5.432;2024-02-21T04:04:22;19.40;;;8.07;;
74064;SDS011;62421;51.412;5.432;2024-02-21T04:06:50;20.17;;;7.00;;
74064;SDS011;62421;51.412;5.432;2024-02-21T04:09:16;19.17;;;8.00;;
74064;SDS011;62421;51.412;5.432;2024-02-21T04:11:42;20.80;;;7.53;;
74064;SDS011;62421;51.412;5.432;2024-02-21T04:14:07;16.98;;;6.60;;
74064;SDS011;62421;51.412;5.432;2024-02-21T04:16:34;16.83;;;7.17;;
74064;SDS011;62421;51.412;5.432;2024-02-21T04:18:59;21.17;;;7.40;;
74064;SDS011;62421;51.412;5.432;2024-02-21T04:21:26;17.58;;;7.13;;
74064;SDS011;62421;51.412;5.432;2024-02-21T04:23:51;24.50;;;7.30;;
74064;SDS011;62421;51.412;5.432;2024-02-21T04:26:16;16.93;;;6.33;;
74064;SDS011;62421;51.412;5.432;2024-02-21T04:28:42;21.63;;;7.77;;
74064;SDS011;62421;51.412;5.432;2024-02-21T04:31:09;22.90;;;6.90;;
74064;SDS011;62421;51.412;5.432;2024-02-21T04:33:35;25.63;;;7.03;;
74064;SDS011;62421;51.412;5.432;2024-02-21T04:36:00;22.77;;;7.00;;
74064;SDS011;62421;51.412;5.432;2024-02-21T04:38:27;32.28;;;8.52;;
74064;SDS011;62421;51.412;5.432;2024-02-21T04:40:53;17.93;;;6.77;;
74064;SDS011;62421;51.412;5.432;2024-02-21T04:43:19;20.15;;;7.05;;
74064;SDS011;62421;51.412;5.432;2024-02-21T04:45:44;20.53;;;7.37;;
74064;SDS011;62421;51.412;5.432;2024-02-21T04:48:09;18.87;;;7.20;;
74064;SDS011;62421;51.412;5.432;2024-02-21T04:50:35;18.90;;;7.40;;
74064;SDS011;62421;51.412;5.432;2024-02-21T04:53:00;22.20;;;7.80;;
74064;SDS011;62421;51.412;5.432;2024-02-21T04:55:26;17.95;;;7.68;;
74064;SDS011;62421;51.412;5.432;2024-02-21T04:57:51;18.60;;;7.80;;
74064;SDS011;62421;51.412;5.432;2024-02-21T05:00:17;22.67;;;9.60;;
74064;SDS011;62421;51.412;5.432;2024-02-21T05:02:42;23.00;;;8.30;;
74064;SDS011;62421;51.412;5.432;2024-02-21T05:05:08;17.43;;;6.50;;
74064;SDS011;62421;51.412;5.432;2024-02-21T05:07:34;14.73;;;7.75;;
74064;SDS011;62421;51.412;5.432;2024-02-21T05:10:00;16.77;;;6.90;;
74064;SDS011;62421;51.412;5.432;2024-02-21T05:12:25;18.55;;;7.57;;
74064;SDS011;62421;51.412;5.432;2024-02-21T05:14:51;20.63;;;8.17;;
74064;SDS011;62421;51.412;5.432;2024-02-21T05:17:16;18.13;;;7.33;;
74064;SDS011;62421;51.412;5.432;2024-02-21T05:19:41;18.90;;;7.43;;
74064;SDS011;62421;51.412;5.432;2024-02-21T05:22:06;19.10;;;8.27;;
74064;SDS011;62421;51.412;5.432;2024-02-21T05:24:32;20.63;;;7.03;;
74064;SDS011;62421;51.412;5.432;2024-02-21T05:26:57;20.13;;;7.20;;
74064;SDS011;62421;51.412;5.432;2024-02-21T05:29:23;17.70;;;8.17;;
74064;SDS011;62421;51.412;5.432;2024-02-21T05:34:16;17.15;;;7.22;;
74064;SDS011;62421;51.412;5.432;2024-02-21T05:36:42;20.33;;;8.02;;
74064;SDS011;62421;51.412;5.432;2024-02-21T05:39:07;17.50;;;7.60;;
74064;SDS011;62421;51.412;5.432;2024-02-21T05:41:33;18.63;;;7.00;;
74064;SDS011;62421;51.412;5.432;2024-02-21T05:43:58;17.13;;;7.63;;
74064;SDS011;62421;51.412;5.432;2024-02-21T05:46:23;16.70;;;7.23;;
74064;SDS011;62421;51.412;5.432;2024-02-21T05:48:49;17.42;;;7.10;;
74064;SDS011;62421;51.412;5.432;2024-02-21T05:51:14;16.50;;;7.03;;
74064;SDS011;62421;51.412;5.432;2024-02-21T05:53:40;21.70;;;7.93;;
74064;SDS011;62421;51.412;5.432;2024-02-21T05:56:12;18.13;;;6.53;;
74064;SDS011;62421;51.412;5.432;2024-02-21T05:58:40;17.70;;;5.70;;
74064;SDS011;62421;51.412;5.432;2024-02-21T06:01:05;17.45;;;6.45;;
74064;SDS011;62421;51.412;5.432;2024-02-21T06:03:37;22.00;;;7.15;;
74064;SDS011;62421;51.412;5.432;2024-02-21T06:06:02;17.10;;;6.17;;
74064;SDS011;62421;51.412;5.432;2024-02-21T06:08:29;18.05;;;7.20;;
74064;SDS011;62421;51.412;5.432;2024-02-21T06:10:55;17.43;;;7.30;;
74064;SDS011;62421;51.412;5.432;2024-02-21T06:13:21;19.50;;;7.20;;
74064;SDS011;62421;51.412;5.432;2024-02-21T06:15:47;19.30;;;6.22;;
74064;SDS011;62421;51.412;5.432;2024-02-21T06:18:12;26.45;;;8.63;;
74064;SDS011;62421;51.412;5.432;2024-02-21T06:20:37;21.43;;;7.80;;
74064;SDS011;62421;51.412;5.432;2024-02-21T06:23:05;17.93;;;7.87;;
74064;SDS011;62421;51.412;5.432;2024-02-21T06:25:31;21.17;;;8.10;;
74064;SDS011;62421;51.412;5.432;2024-02-21T06:27:56;21.13;;;8.43;;
74064;SDS011;62421;51.412;5.432;2024-02-21T06:30:21;16.30;;;7.63;;
74064;SDS011;62421;51.412;5.432;2024-02-21T06:32:47;22.43;;;7.77;;
74064;SDS011;62421;51.412;5.432;2024-02-21T06:35:12;19.00;;;7.05;;
74064;SDS011;62421;51.412;5.432;2024-02-21T06:37:37;20.60;;;6.97;;
74064;SDS011;62421;51.412;5.432;2024-02-21T06:40:03;13.73;;;7.13;;
74064;SDS011;62421;51.412;5.432;2024-02-21T06:42:29;19.35;;;7.75;;
74064;SDS011;62421;51.412;5.432;2024-02-21T06:44:54;22.00;;;8.20;;
74064;SDS011;62421;51.412;5.432;2024-02-21T06:47:21;15.57;;;7.10;;
74064;SDS011;62421;51.412;5.432;2024-02-21T06:49:50;18.67;;;7.53;;
74064;SDS011;62421;51.412;5.432;2024-02-21T06:52:17;20.85;;;7.43;;
74064;SDS011;62421;51.412;5.432;2024-02-21T06:54:45;22.57;;;8.00;;
74064;SDS011;62421;51.412;5.432;2024-02-21T06:57:10;19.42;;;8.25;;
74064;SDS011;62421;51.412;5.432;2024-02-21T06:59:35;21.83;;;7.50;;
74064;SDS011;62421;51.412;5.432;2024-02-21T07:02:01;21.73;;;8.33;;
74064;SDS011;62421;51.412;5.432;2024-02-21T07:04:26;22.53;;;7.80;;
74064;SDS011;62421;51.412;5.432;2024-02-21T07:06:52;21.90;;;7.83;;
74064;SDS011;62421;51.412;5.432;2024-02-21T07:09:17;15.30;;;6.75;;
74064;SDS011;62421;51.412;5.432;2024-02-21T07:11:43;21.60;;;7.83;;
74064;SDS011;62421;51.412;5.432;2024-02-21T07:14:08;18.20;;;9.07;;
74064;SDS011;62421;51.412;5.432;2024-02-21T07:16:34;21.07;;;8.27;;
74064;SDS011;62421;51.412;5.432;2024-02-21T07:18:59;22.20;;;7.30;;
74064;SDS011;62421;51.412;5.432;2024-02-21T07:21:25;22.00;;;8.23;;
74064;SDS011;62421;51.412;5.432;2024-02-21T07:23:50;16.07;;;7.10;;
74064;SDS011;62421;51.412;5.432;2024-02-21T07:26:16;19.67;;;7.63;;
74064;SDS011;62421;51.412;5.432;2024-02-21T07:28:41;19.97;;;7.53;;
74064;SDS011;62421;51.412;5.432;2024-02-21T07:31:06;15.38;;;7.30;;
74064;SDS011;62421;51.412;5.432;2024-02-21T07:33:31;13.60;;;7.57;;
74064;SDS011;62421;51.412;5.432;2024-02-21T07:35:57;17.67;;;7.20;;
74064;SDS011;62421;51.412;5.432;2024-02-21T07:38:23;20.47;;;8.27;;
74064;SDS011;62421;51.412;5.432;2024-02-21T07:40:48;19.40;;;7.23;;
74064;SDS011;62421;51.412;5.432;2024-02-21T07:43:13;18.30;;;6.33;;
74064;SDS011;62421;51.412;5.432;2024-02-21T07:45:39;15.02;;;7.25;;
74064;SDS011;62421;51.412;5.432;2024-02-21T07:48:05;11.70;;;6.03;;
74064;SDS011;62421;51.412;5.432;2024-02-21T07:50:30;18.23;;;6.23;;
74064;SDS011;62421;51.412;5.432;2024-02-21T07:52:56;17.48;;;6.22;;
74064;SDS011;62421;51.412;5.432;2024-02-21T07:55:22;18.23;;;6.60;;
74064;SDS011;62421;51.412;5.432;2024-02-21T07:57:47;15.23;;;6.43;;
74064;SDS011;62421;51.412;5.432;2024-02-21T08:00:12;17.10;;;7.33;;
74064;SDS011;62421;51.412;5.432;2024-02-21T08:02:44;16.17;;;5.57;;
74064;SDS011;62421;51.412;5.432;2024-02-21T08:05:18;12.98;;;5.78;;
74064;SDS011;62421;51.412;5.432;2024-02-21T08:07:44;12.13;;;6.10;;
74064;SDS011;62421;51.412;5.432;2024-02-21T08:10:09;18.73;;;6.67;;
74064;SDS011;62421;51.412;5.432;2024-02-21T08:12:35;13.40;;;5.97;;
74064;SDS011;62421;51.412;5.432;2024-02-21T08:15:00;12.18;;;5.45;;
74064;SDS011;62421;51.412;5.432;2024-02-21T08:17:28;10.00;;;5.63;;
74064;SDS011;62421;51.412;5.432;2024-02-21T08:19:54;11.52;;;5.40;;
74064;SDS011;62421;51.412;5.432;2024-02-21T08:22:19;10.47;;;5.00;;
74064;SDS011;62421;51.412;5.432;2024-02-21T08:24:45;11.83;;;4.77;;
74064;SDS011;62421;51.412;5.432;2024-02-21T08:27:10;10.10;;;5.43;;
74064;SDS011;62421;51.412;5.432;2024-02-21T08:29:35;8.83;;;5.40;;
74064;SDS011;62421;51.412;5.432;2024-02-21T08:32:01;14.88;;;5.95;;
74064;SDS011;62421;51.412;5.432;2024-02-21T08:34:26;13.77;;;6.03;;
74064;SDS011;62421;51.412;5.432;2024-02-21T08:36:54;12.45;;;5.97;;
74064;SDS011;62421;51.412;5.432;2024-02-21T08:39:19;10.83;;;5.13;;
74064;SDS011;62421;51.412;5.432;2024-02-21T08:41:44;9.50;;;4.30;;
74064;SDS011;62421;51.412;5.432;2024-02-21T08:44:10;13.17;;;5.83;;
74064;SDS011;62421;51.412;5.432;2024-02-21T08:46:35;12.27;;;5.47;;
74064;SDS011;62421;51.412;5.432;2024-02-21T08:49:03;10.88;;;4.90;;
74064;SDS011;62421;51.412;5.432;2024-02-21T08:51:28;10.33;;;5.47;;
74064;SDS011;62421;51.412;5.432;2024-02-21T08:53:54;8.77;;;5.30;;
74064;SDS011;62421;51.412;5.432;2024-02-21T08:56:20;12.20;;;5.72;;
74064;SDS011;62421;51.412;5.432;2024-02-21T08:58:45;9.73;;;5.77;;
74064;SDS011;62421;51.412;5.432;2024-02-21T09:01:11;12.05;;;5.60;;
74064;SDS011;62421;51.412;5.432;2024-02-21T09:03:37;13.90;;;7.10;;
74064;SDS011;62421;51.412;5.432;2024-02-21T09:06:04;11.00;;;6.25;;
74064;SDS011;62421;51.412;5.432;2024-02-21T09:08:30;12.48;;;6.25;;
74064;SDS011;62421;51.412;5.432;2024-02-21T09:10:55;17.17;;;7.63;;
74064;SDS011;62421;51.412;5.432;2024-02-21T09:13:20;12.83;;;7.17;;
74064;SDS011;62421;51.412;5.432;2024-02-21T09:15:47;12.00;;;6.50;;
74064;SDS011;62421;51.412;5.432;2024-02-21T09:18:13;15.20;;;6.45;;
74064;SDS011;62421;51.412;5.432;2024-02-21T09:20:38;12.77;;;6.17;;
74064;SDS011;62421;51.412;5.432;2024-02-21T09:23:04;14.03;;;6.43;;
74064;SDS011;62421;51.412;5.432;2024-02-21T09:25:29;13.73;;;5.97;;
74064;SDS011;62421;51.412;5.432;2024-02-21T09:27:55;16.88;;;6.30;;
74064;SDS011;62421;51.412;5.432;2024-02-21T09:30:20;17.90;;;6.97;;
74064;SDS011;62421;51.412;5.432;2024-02-21T09:32:46;12.20;;;5.73;;
74064;SDS011;62421;51.412;5.432;2024-02-21T09:35:12;17.02;;;6.35;;
74064;SDS011;62421;51.412;5.432;2024-02-21T09:37:38;11.43;;;5.80;;
74064;SDS011;62421;51.412;5.432;2024-02-21T09:40:04;14.07;;;6.28;;
74064;SDS011;62421;51.412;5.432;2024-02-21T09:42:37;10.52;;;6.00;;
74064;SDS011;62421;51.412;5.432;2024-02-21T09:45:15;12.98;;;5.80;;
74064;SDS011;62421;51.412;5.432;2024-02-21T09:50:30;18.13;;;6.40;;
74064;SDS011;62421;51.412;5.432;2024-02-21T09:52:59;15.95;;;5.55;;
74064;SDS011;62421;51.412;5.432;2024-02-21T09:55:27;11.73;;;5.97;;
74064;SDS011;62421;51.412;5.432;2024-02-21T09:57:57;13.85;;;6.18;;
74064;SDS011;62421;51.412;5.432;2024-02-21T10:00:23;13.52;;;5.43;;
74064;SDS011;62421;51.412;5.432;2024-02-21T10:02:49;9.77;;;5.37;;
74064;SDS011;62421;51.412;5.432;2024-02-21T10:05:15;11.20;;;4.53;;
74064;SDS011;62421;51.412;5.432;2024-02-21T10:07:41;14.00;;;5.13;;
74064;SDS011;62421;51.412;5.432;2024-02-21T10:10:07;13.90;;;5.93;;
74064;SDS011;62421;51.412;5.432;2024-02-21T10:12:33;13.88;;;5.70;;
74064;SDS011;62421;51.412;5.432;2024-02-21T10:15:02;10.07;;;4.73;;
74064;SDS011;62421;51.412;5.432;2024-02-21T10:17:29;10.52;;;4.97;;
74064;SDS011;62421;51.412;5.432;2024-02-21T10:19:54;12.27;;;4.23;;
74064;SDS011;62421;51.412;5.432;2024-02-21T10:22:19;9.70;;;4.50;;
74064;SDS011;62421;51.412;5.432;2024-02-21T10:24:50;13.90;;;5.13;;
74064;SDS011;62421;51.412;5.432;2024-02-21T10:27:15;16.60;;;5.90;;
74064;SDS011;62421;51.412;5.432;2024-02-21T10:29:41;13.63;;;4.93;;
74064;SDS011;62421;51.412;5.432;2024-02-21T10:32:12;12.75;;;4.13;;
74064;SDS011;62421;51.412;5.432;2024-02-21T10:34:39;10.30;;;4.30;;
74064;SDS011;62421;51.412;5.432;2024-02-21T10:37:06;9.90;;;3.92;;
74064;SDS011;62421;51.412;5.432;2024-02-21T10:39:39;12.57;;;4.50;;
74064;SDS011;62421;51.412;5.432;2024-02-21T10:42:05;12.80;;;4.63;;
74064;SDS011;62421;51.412;5.432;2024-02-21T10:44:31;15.98;;;4.40;;
74064;SDS011;62421;51.412;5.432;2024-02-21T10:46:58;8.63;;;4.40;;
74064;SDS011;62421;51.412;5.432;2024-02-21T10:49:24;12.82;;;4.43;;
74064;SDS011;62421;51.412;5.432;2024-02-21T10:51:54;12.00;;;4.13;;
74064;SDS011;62421;51.412;5.432;2024-02-21T10:54:40;13.32;;;4.05;;
74064;SDS011;62421;51.412;5.432;2024-02-21T10:57:11;12.55;;;4.72;;
74064;SDS011;62421;51.412;5.432;2024-02-21T10:59:39;8.48;;;3.75;;
74064;SDS011;62421;51.412;5.432;2024-02-21T11:02:05;11.95;;;4.10;;
74064;SDS011;62421;51.412;5.432;2024-02-21T11:04:31;11.17;;;4.27;;
74064;SDS011;62421;51.412;5.432;2024-02-21T11:07:01;13.70;;;4.13;;
74064;SDS011;62421;51.412;5.432;2024-02-21T11:09:30;12.63;;;4.10;;
74064;SDS011;62421;51.412;5.432;2024-02-21T11:12:02;10.93;;;4.00;;
74064;SDS011;62421;51.412;5.432;2024-02-21T11:14:31;8.98;;;3.70;;
74064;SDS011;62421;51.412;5.432;2024-02-21T11:16:57;17.93;;;4.80;;
74064;SDS011;62421;51.412;5.432;2024-02-21T11:19:24;10.15;;;3.72;;
74064;SDS011;62421;51.412;5.432;2024-02-21T11:21:51;10.70;;;3.72;;
74064;SDS011;62421;51.412;5.432;2024-02-21T11:24:51;9.60;;;3.67;;
74064;SDS011;62421;51.412;5.432;2024-02-21T11:27:13;12.68;;;4.53;;
74064;SDS011;62421;51.412;5.432;2024-02-21T11:29:53;10.90;;;4.10;;
74064;SDS011;62421;51.412;5.432;2024-02-21T11:32:20;9.45;;;3.53;;
74064;SDS011;62421;51.412;5.432;2024-02-21T11:34:58;11.45;;;4.15;;
74064;SDS011;62421;51.412;5.432;2024-02-21T11:37:29;9.77;;;4.10;;
74064;SDS011;62421;51.412;5.432;2024-02-21T11:39:55;7.50;;;3.63;;
74064;SDS011;62421;51.412;5.432;2024-02-21T11:42:21;11.20;;;3.78;;
74064;SDS011;62421;51.412;5.432;2024-02-21T11:44:47;9.63;;;3.55;;
74064;SDS011;62421;51.412;5.432;2024-02-21T11:47:13;42.63;;;6.07;;
74064;SDS011;62421;51.412;5.432;2024-02-21T11:49:43;13.77;;;4.38;;
74064;SDS011;62421;51.412;5.432;2024-02-21T11:52:14;21.10;;;4.40;;
74064;SDS011;62421;51.412;5.432;2024-02-21T11:54:41;9.68;;;4.35;;
74064;SDS011;62421;51.412;5.432;2024-02-21T11:57:07;20.60;;;4.67;;
74064;SDS011;62421;51.412;5.432;2024-02-21T11:59:32;13.33;;;3.87;;
74064;SDS011;62421;51.412;5.432;2024-02-21T12:01:58;8.75;;;3.30;;
74064;SDS011;62421;51.412;5.432;2024-02-21T12:04:25;11.73;;;4.32;;
74064;SDS011;62421;51.412;5.432;2024-02-21T12:06:50;9.13;;;3.23;;
74064;SDS011;62421;51.412;5.432;2024-02-21T12:09:18;9.65;;;4.40;;
74064;SDS011;62421;51.412;5.432;2024-02-21T12:11:44;8.70;;;3.70;;
74064;SDS011;62421;51.412;5.432;2024-02-21T12:14:10;9.32;;;3.90;;
74064;SDS011;62421;51.412;5.432;2024-02-21T12:16:36;8.40;;;3.67;;
74064;SDS011;62421;51.412;5.432;2024-02-21T12:19:04;8.48;;;3.08;;
74064;SDS011;62421;51.412;5.432;2024-02-21T12:21:30;12.50;;;4.22;;
74064;SDS011;62421;51.412;5.432;2024-02-21T12:23:57;9.32;;;3.80;;
74064;SDS011;62421;51.412;5.432;2024-02-21T12:26:23;9.52;;;4.38;;
74064;SDS011;62421;51.412;5.432;2024-02-21T12:28:49;10.93;;;4.90;;
74064;SDS011;62421;51.412;5.432;2024-02-21T12:31:14;7.70;;;3.83;;
74064;SDS011;62421;51.412;5.432;2024-02-21T12:33:41;13.95;;;4.00;;
74064;SDS011;62421;51.412;5.432;2024-02-21T12:36:07;8.57;;;3.53;;
74064;SDS011;62421;51.412;5.432;2024-02-21T12:38:34;10.65;;;3.78;;
74064;SDS011;62421;51.412;5.432;2024-02-21T12:41:00;8.70;;;3.57;;
74064;SDS011;62421;51.412;5.432;2024-02-21T12:43:26;7.78;;;3.20;;
74064;SDS011;62421;51.412;5.432;2024-02-21T12:45:51;12.27;;;4.00;;
74064;SDS011;62421;51.412;5.432;2024-02-21T12:48:17;8.00;;;3.75;;
74064;SDS011;62421;51.412;5.432;2024-02-21T12:50:47;9.97;;;3.73;;
74064;SDS011;62421;51.412;5.432;2024-02-21T12:53:15;12.55;;;3.83;;
74064;SDS011;62421;51.412;5.432;2024-02-21T12:55:41;8.90;;;3.97;;
74064;SDS011;62421;51.412;5.432;2024-02-21T12:58:06;7.03;;;3.07;;
74064;SDS011;62421;51.412;5.432;2024-02-21T13:00:32;9.52;;;3.53;;
74064;SDS011;62421;51.412;5.432;2024-02-21T13:02:57;9.80;;;4.07;;
74064;SDS011;62421;51.412;5.432;2024-02-21T13:05:23;8.07;;;3.33;;
74064;SDS011;62421;51.412;5.432;2024-02-21T13:07:48;9.53;;;3.10;;
74064;SDS011;62421;51.412;5.432;2024-02-21T13:10:14;9.30;;;3.50;;
74064;SDS011;62421;51.412;5.432;2024-02-21T13:12:39;10.00;;;3.07;;
74064;SDS011;62421;51.412;5.432;2024-02-21T13:15:05;9.20;;;3.53;;
74064;SDS011;62421;51.412;5.432;2024-02-21T13:17:31;9.05;;;2.90;;
74064;SDS011;62421;51.412;5.432;2024-02-21T13:19:56;10.20;;;3.00;;
74064;SDS011;62421;51.412;5.432;2024-02-21T13:22:22;9.95;;;2.60;;
74064;SDS011;62421;51.412;5.432;2024-02-21T13:24:50;8.52;;;3.58;;
74064;SDS011;62421;51.412;5.432;2024-02-21T13:27:16;9.23;;;3.70;;
74064;SDS011;62421;51.412;5.432;2024-02-21T13:29:41;10.47;;;2.90;;
74064;SDS011;62421;51.412;5.432;2024-02-21T13:32:07;8.07;;;2.93;;
74064;SDS011;62421;51.412;5.432;2024-02-21T13:34:33;18.77;;;4.10;;
74064;SDS011;62421;51.412;5.432;2024-02-21T13:36:59;12.20;;;3.67;;
74064;SDS011;62421;51.412;5.432;2024-02-21T13:39:24;6.32;;;2.53;;
74064;SDS011;62421;51.412;5.432;2024-02-21T13:41:50;10.43;;;3.50;;
74064;SDS011;62421;51.412;5.432;2024-02-21T13:44:16;5.85;;;2.10;;
74064;SDS011;62421;51.412;5.432;2024-02-21T13:46:41;15.97;;;3.13;;
74064;SDS011;62421;51.412;5.432;2024-02-21T13:49:07;11.17;;;2.87;;
74064;SDS011;62421;51.412;5.432;2024-02-21T13:51:35;13.70;;;2.27;;
74064;SDS011;62421;51.412;5.432;2024-02-21T13:54:01;10.27;;;3.10;;
74064;SDS011;62421;51.412;5.432;2024-02-21T13:56:29;11.57;;;2.92;;
74064;SDS011;62421;51.412;5.432;2024-02-21T13:58:54;8.77;;;3.67;;
74064;SDS011;62421;51.412;5.432;2024-02-21T14:01:20;8.80;;;2.93;;
74064;SDS011;62421;51.412;5.432;2024-02-21T14:03:45;9.48;;;2.47;;
74064;SDS011;62421;51.412;5.432;2024-02-21T14:06:11;7.23;;;3.30;;
74064;SDS011;62421;51.412;5.432;2024-02-21T14:08:37;5.97;;;2.83;;
74064;SDS011;62421;51.412;5.432;2024-02-21T14:11:04;6.83;;;2.40;;
74064;SDS011;62421;51.412;5.432;2024-02-21T14:13:31;9.85;;;3.10;;
74064;SDS011;62421;51.412;5.432;2024-02-21T14:15:56;7.28;;;2.70;;
74064;SDS011;62421;51.412;5.432;2024-02-21T14:18:21;6.13;;;2.72;;
74064;SDS011;62421;51.412;5.432;2024-02-21T14:20:47;8.43;;;2.47;;
74064;SDS011;62421;51.412;5.432;2024-02-21T14:23:12;10.03;;;3.03;;
74064;SDS011;62421;51.412;5.432;2024-02-21T14:25:38;7.57;;;2.67;;
74064;SDS011;62421;51.412;5.432;2024-02-21T14:28:04;5.43;;;2.45;;
74064;SDS011;62421;51.412;5.432;2024-02-21T14:30:30;5.93;;;3.08;;
74064;SDS011;62421;51.412;5.432;2024-02-21T14:32:55;5.80;;;2.77;;
74064;SDS011;62421;51.412;5.432;2024-02-21T14:35:21;8.77;;;2.70;;